createdAt,value
2018-09-25T00:00:00.583Z,100109.66
2018-09-25T00:00:31.709Z,100116.61
2018-09-25T00:01:02.821Z,100116.15
2018-09-25T00:01:33.938Z,100113.27
2018-09-25T00:02:05.057Z,100110.17
2018-09-25T00:02:36.197Z,100085.69
2018-09-25T00:03:07.303Z,100101.39
2018-09-25T00:03:38.465Z,100115.30
2018-09-25T00:04:09.577Z,100107.03
2018-09-25T00:04:40.682Z,100093.05
2018-09-25T00:06:13.403Z,100108.17
2018-09-25T00:06:44.503Z,100097.20
2018-09-25T00:07:15.607Z,100099.70
2018-09-25T00:07:46.706Z,100117.45
2018-09-25T00:08:17.811Z,100102.56
2018-09-25T00:08:48.941Z,100093.78
2018-09-25T00:09:20.074Z,100101.14
2018-09-25T00:09:51.225Z,100095.38
2018-09-25T00:10:22.353Z,100075.63
2018-09-25T00:10:53.463Z,100090.39
2018-09-25T00:11:24.575Z,100083.77
2018-09-25T00:11:55.690Z,100095.45
2018-09-25T00:12:26.800Z,100077.47
2018-09-25T00:12:57.925Z,100092.66
2018-09-25T00:13:29.017Z,100096.98
2018-09-25T00:14:00.152Z,100097.33
2018-09-25T00:14:31.288Z,100097.70
2018-09-25T00:15:02.390Z,100085.44
2018-09-25T00:15:33.489Z,100107.70
2018-09-25T00:16:04.628Z,100099.36
2018-09-25T00:16:35.738Z,100094.55
2018-09-25T00:17:06.893Z,100087.56
2018-09-25T00:17:38.002Z,100083.53
2018-09-25T00:18:09.107Z,100095.73
2018-09-25T00:18:40.234Z,100090.90
2018-09-25T00:19:11.369Z,100100.38
2018-09-25T00:19:42.495Z,100100.78
2018-09-25T00:20:13.689Z,100102.92
2018-09-25T00:20:44.790Z,100086.73
2018-09-25T00:21:15.903Z,100105.56
2018-09-25T00:21:47.015Z,100101.44
2018-09-25T00:22:18.118Z,100114.41
2018-09-25T00:22:49.676Z,100117.88
2018-09-25T00:23:20.778Z,100110.42
2018-09-25T00:23:51.884Z,100120.85
2018-09-25T00:24:22.983Z,100111.66
2018-09-25T00:24:54.093Z,100120.78
2018-09-25T00:25:25.232Z,100129.11
2018-09-25T00:25:56.334Z,100118.98
2018-09-25T00:26:27.430Z,100132.57
2018-09-25T00:26:58.557Z,100120.42
2018-09-25T00:27:29.692Z,100114.36
2018-09-25T00:28:00.800Z,100125.31
2018-09-25T00:28:31.904Z,100122.22
2018-09-25T00:29:03.003Z,100131.03
2018-09-25T00:29:34.097Z,100133.77
2018-09-25T00:30:05.201Z,100131.63
2018-09-25T00:30:36.346Z,100136.88
2018-09-25T00:31:07.455Z,100139.48
2018-09-25T00:31:38.555Z,100139.42
2018-09-25T00:32:09.673Z,100143.30
2018-09-25T00:32:40.781Z,100149.79
2018-09-25T00:33:11.947Z,100142.42
2018-09-25T00:33:43.067Z,100139.84
2018-09-25T00:34:14.209Z,100141.09
2018-09-25T00:34:45.321Z,100155.86
2018-09-25T00:35:16.423Z,100161.76
2018-09-25T00:35:47.521Z,100153.00
2018-09-25T00:36:18.652Z,100151.58
2018-09-25T00:36:49.830Z,100158.59
2018-09-25T00:37:20.952Z,100159.44
2018-09-25T00:37:52.049Z,100147.28
2018-09-25T00:38:23.182Z,100146.50
2018-09-25T00:38:54.310Z,100151.63
2018-09-25T00:39:25.440Z,100143.88
2018-09-25T00:39:56.531Z,100151.74
2018-09-25T00:40:27.619Z,100125.20
2018-09-25T00:40:58.734Z,100124.59
2018-09-25T00:41:29.834Z,100143.58
2018-09-25T00:42:00.937Z,100153.59
2018-09-25T00:42:32.083Z,100154.17
2018-09-25T00:43:03.223Z,100132.81
2018-09-25T00:43:34.362Z,100134.70
2018-09-25T00:44:05.453Z,100139.59
2018-09-25T00:44:36.558Z,100145.73
2018-09-25T00:45:07.656Z,100134.34
2018-09-25T00:45:38.768Z,100142.64
2018-09-25T00:46:09.869Z,100133.88
2018-09-25T00:46:40.975Z,100148.30
2018-09-25T00:47:12.149Z,100125.91
2018-09-25T00:47:43.271Z,100134.33
2018-09-25T00:48:14.386Z,100136.23
2018-09-25T00:48:45.506Z,100154.89
2018-09-25T00:49:16.609Z,100113.88
2018-09-25T00:49:47.804Z,100144.59
2018-09-25T00:50:18.904Z,100142.55
2018-09-25T00:50:50.020Z,100124.77
2018-09-25T00:51:21.142Z,100150.44
2018-09-25T00:51:52.255Z,100143.52
2018-09-25T00:52:23.359Z,100156.39
2018-09-25T00:52:54.466Z,100154.59
2018-09-25T00:53:25.576Z,100147.13
2018-09-25T00:53:56.705Z,100157.21
2018-09-25T00:54:27.866Z,100160.71
2018-09-25T00:54:59.009Z,100158.98
2018-09-25T00:55:30.137Z,100141.97
2018-09-25T00:56:01.266Z,100149.53
2018-09-25T00:56:32.402Z,100156.55
2018-09-25T00:57:03.501Z,100144.42
2018-09-25T00:57:34.594Z,100169.08
2018-09-25T00:58:05.713Z,100150.73
2018-09-25T00:58:36.867Z,100160.73
2018-09-25T00:59:07.986Z,100154.17
2018-09-25T00:59:39.113Z,100154.17
2018-09-25T01:00:10.260Z,100171.92
2018-09-25T01:00:41.386Z,100176.58
2018-09-25T01:01:12.508Z,100176.63
2018-09-25T01:01:43.609Z,100138.28
2018-09-25T01:02:14.715Z,100160.92
2018-09-25T01:02:45.880Z,100174.36
2018-09-25T01:03:16.976Z,100172.94
2018-09-25T01:03:48.078Z,100179.06
2018-09-25T01:04:19.179Z,100176.93
2018-09-25T01:04:50.279Z,100184.49
2018-09-25T01:05:21.387Z,100185.11
2018-09-25T01:05:52.497Z,100188.69
2018-09-25T01:06:23.595Z,100177.54
2018-09-25T01:06:54.709Z,100188.09
2018-09-25T01:07:25.808Z,100184.98
2018-09-25T01:07:56.945Z,100184.03
2018-09-25T01:08:28.056Z,100195.89
2018-09-25T01:08:59.179Z,100174.02
2018-09-25T01:09:30.282Z,100186.71
2018-09-25T01:10:01.387Z,100165.80
2018-09-25T01:10:32.541Z,100154.38
2018-09-25T01:11:03.693Z,100174.20
2018-09-25T01:11:34.795Z,100195.89
2018-09-25T01:12:05.903Z,100200.13
2018-09-25T01:12:37.006Z,100162.58
2018-09-25T01:13:08.136Z,100187.61
2018-09-25T01:13:39.236Z,100169.67
2018-09-25T01:14:10.333Z,100178.69
2018-09-25T01:14:41.478Z,100174.91
2018-09-25T01:15:12.622Z,100190.30
2018-09-25T01:15:43.730Z,100197.91
2018-09-25T01:16:14.830Z,100190.64
2018-09-25T01:16:45.944Z,100188.09
2018-09-25T01:17:17.051Z,100165.87
2018-09-25T01:17:48.203Z,100186.95
2018-09-25T01:18:19.309Z,100198.40
2018-09-25T01:18:50.424Z,100202.80
2018-09-25T01:19:21.594Z,100201.97
2018-09-25T01:19:52.723Z,100204.05
2018-09-25T01:20:23.828Z,100199.48
2018-09-25T01:20:54.932Z,100198.58
2018-09-25T01:21:26.039Z,100188.61
2018-09-25T01:21:57.194Z,100200.23
2018-09-25T01:22:28.315Z,100192.67
2018-09-25T01:22:59.451Z,100210.53
2018-09-25T01:23:30.549Z,100200.35
2018-09-25T01:24:01.679Z,100218.22
2018-09-25T01:24:32.817Z,100209.04
2018-09-25T01:25:03.913Z,100206.98
2018-09-25T01:25:35.006Z,100215.78
2018-09-25T01:26:06.117Z,100213.87
2018-09-25T01:26:37.215Z,100222.05
2018-09-25T01:27:08.315Z,100216.84
2018-09-25T01:27:39.463Z,100211.78
2018-09-25T01:28:10.592Z,100207.55
2018-09-25T01:28:41.715Z,100219.46
2018-09-25T01:29:12.824Z,100223.06
2018-09-25T01:29:43.983Z,100224.17
2018-09-25T01:30:15.098Z,100226.69
2018-09-25T01:30:46.232Z,100201.36
2018-09-25T01:31:17.343Z,100206.19
2018-09-25T01:31:48.437Z,100230.67
2018-09-25T01:32:19.548Z,100232.99
2018-09-25T01:32:50.666Z,100216.92
2018-09-25T01:33:21.852Z,100221.20
2018-09-25T01:33:52.959Z,100211.45
2018-09-25T01:34:24.072Z,100244.50
2018-09-25T01:34:55.201Z,100231.09
2018-09-25T01:35:26.307Z,100224.61
2018-09-25T01:35:57.421Z,100212.92
2018-09-25T01:36:28.539Z,100230.92
2018-09-25T01:36:59.671Z,100234.86
2018-09-25T01:37:30.786Z,100215.72
2018-09-25T01:38:01.923Z,100222.34
2018-09-25T01:38:33.039Z,100228.28
2018-09-25T01:39:04.163Z,100209.96
2018-09-25T01:39:35.258Z,100204.28
2018-09-25T01:40:06.350Z,100219.06
2018-09-25T01:40:37.445Z,100236.15
2018-09-25T01:41:08.534Z,100218.34
2018-09-25T01:41:39.629Z,100230.56
2018-09-25T01:42:10.733Z,100217.03
2018-09-25T01:42:41.867Z,100227.92
2018-09-25T01:43:12.962Z,100240.67
2018-09-25T01:43:44.079Z,100232.30
2018-09-25T01:44:15.200Z,100226.26
2018-09-25T01:44:46.302Z,100237.13
2018-09-25T01:45:17.422Z,100229.42
2018-09-25T01:45:48.539Z,100236.35
2018-09-25T01:46:19.650Z,100234.02
2018-09-25T01:46:50.795Z,100227.39
2018-09-25T01:47:21.960Z,100230.09
2018-09-25T01:47:53.057Z,100232.47
2018-09-25T01:48:24.194Z,100231.68
2018-09-25T01:48:55.297Z,100232.63
2018-09-25T01:49:26.395Z,100244.27
2018-09-25T01:49:57.505Z,100227.75
2018-09-25T01:50:28.630Z,100231.62
2018-09-25T01:50:59.735Z,100242.11
2018-09-25T01:51:30.831Z,100243.48
2018-09-25T01:52:01.942Z,100232.63
2018-09-25T01:52:33.042Z,100232.23
2018-09-25T01:53:04.210Z,100234.50
2018-09-25T01:53:35.315Z,100238.26
2018-09-25T01:54:06.414Z,100248.14
2018-09-25T01:54:37.541Z,100250.03
2018-09-25T01:55:08.689Z,100233.78
2018-09-25T01:55:39.796Z,100241.83
2018-09-25T01:56:10.926Z,100240.70
2018-09-25T01:56:42.033Z,100226.74
2018-09-25T01:57:13.153Z,100224.25
2018-09-25T01:57:44.265Z,100232.24
2018-09-25T01:58:15.403Z,100235.44
2018-09-25T01:58:46.521Z,100230.27
2018-09-25T01:59:17.655Z,100236.52
2018-09-25T01:59:48.789Z,100239.92
2018-09-25T02:00:19.892Z,100235.04
2018-09-25T02:00:50.993Z,100241.64
2018-09-25T02:01:22.114Z,100239.85
2018-09-25T02:01:53.206Z,100233.53
2018-09-25T02:02:24.374Z,100248.36
2018-09-25T02:02:55.479Z,100237.00
2018-09-25T02:03:26.628Z,100235.38
2018-09-25T02:03:57.748Z,100244.91
2018-09-25T02:04:28.849Z,100239.36
2018-09-25T02:04:59.958Z,100250.98
2018-09-25T02:05:31.069Z,100245.22
2018-09-25T02:06:02.167Z,100245.74
2018-09-25T02:06:33.270Z,100260.36
2018-09-25T02:07:04.406Z,100229.19
2018-09-25T02:07:35.519Z,100247.78
2018-09-25T02:08:06.630Z,100242.52
2018-09-25T02:08:37.795Z,100246.41
2018-09-25T02:09:08.897Z,100259.15
2018-09-25T02:09:40.000Z,100253.78
2018-09-25T02:10:11.148Z,100260.72
2018-09-25T02:10:42.280Z,100248.61
2018-09-25T02:11:13.389Z,100239.56
2018-09-25T02:11:44.503Z,100235.81
2018-09-25T02:12:15.616Z,100259.28
2018-09-25T02:12:46.744Z,100249.27
2018-09-25T02:13:17.881Z,100255.81
2018-09-25T02:13:49.031Z,100248.31
2018-09-25T02:14:20.178Z,100244.44
2018-09-25T02:14:51.283Z,100245.87
2018-09-25T02:15:22.388Z,100251.23
2018-09-25T02:15:53.517Z,100263.67
2018-09-25T02:16:24.630Z,100235.69
2018-09-25T02:16:55.766Z,100233.73
2018-09-25T02:17:26.886Z,100263.63
2018-09-25T02:17:58.019Z,100224.72
2018-09-25T02:18:29.150Z,100238.80
2018-09-25T02:19:00.276Z,100247.77
2018-09-25T02:19:31.383Z,100258.25
2018-09-25T02:20:02.524Z,100257.37
2018-09-25T02:20:33.644Z,100261.13
2018-09-25T02:21:04.758Z,100261.55
2018-09-25T02:21:35.893Z,100265.19
2018-09-25T02:22:07.008Z,100260.18
2018-09-25T02:22:38.118Z,100257.80
2018-09-25T02:23:09.223Z,100262.80
2018-09-25T02:23:40.340Z,100256.84
2018-09-25T02:24:11.450Z,100262.12
2018-09-25T02:24:42.568Z,100265.58
2018-09-25T02:25:13.724Z,100271.84
2018-09-25T02:25:44.832Z,100266.31
2018-09-25T02:26:16.010Z,100244.19
2018-09-25T02:26:47.136Z,100252.12
2018-09-25T02:27:18.252Z,100271.17
2018-09-25T02:27:49.393Z,100260.69
2018-09-25T02:28:20.550Z,100275.58
2018-09-25T02:28:51.677Z,100279.03
2018-09-25T02:29:22.791Z,100235.69
2018-09-25T02:29:53.905Z,100267.86
2018-09-25T02:30:25.011Z,100277.03
2018-09-25T02:30:56.135Z,100275.23
2018-09-25T02:31:27.291Z,100283.23
2018-09-25T02:31:58.402Z,100280.67
2018-09-25T02:32:29.510Z,100283.93
2018-09-25T02:33:00.629Z,100277.37
2018-09-25T02:33:31.743Z,100286.03
2018-09-25T02:34:02.850Z,100278.69
2018-09-25T02:34:33.959Z,100286.92
2018-09-25T02:35:05.087Z,100280.06
2018-09-25T02:35:36.213Z,100287.25
2018-09-25T02:36:07.322Z,100269.56
2018-09-25T02:36:38.486Z,100281.72
2018-09-25T02:37:09.588Z,100295.34
2018-09-25T02:37:40.691Z,100295.41
2018-09-25T02:38:11.796Z,100276.39
2018-09-25T02:38:42.894Z,100288.86
2018-09-25T02:39:14.004Z,100303.88
2018-09-25T02:39:45.111Z,100293.76
2018-09-25T02:40:16.246Z,100292.03
2018-09-25T02:40:47.359Z,100297.64
2018-09-25T02:41:18.482Z,100291.45
2018-09-25T02:41:49.621Z,100301.86
2018-09-25T02:42:20.767Z,100294.48
2018-09-25T02:42:51.908Z,100295.96
2018-09-25T02:43:23.026Z,100309.02
2018-09-25T02:43:54.157Z,100318.08
2018-09-25T02:44:25.273Z,100301.34
2018-09-25T02:44:56.449Z,100318.00
2018-09-25T02:45:27.597Z,100307.83
2018-09-25T02:45:58.757Z,100314.04
2018-09-25T02:46:29.854Z,100313.88
2018-09-25T02:47:00.969Z,100305.66
2018-09-25T02:47:32.067Z,100317.08
2018-09-25T02:48:03.169Z,100301.52
2018-09-25T02:48:34.293Z,100310.35
2018-09-25T02:49:05.413Z,100290.86
2018-09-25T02:49:36.525Z,100307.37
2018-09-25T02:50:07.684Z,100309.55
2018-09-25T02:50:38.813Z,100304.80
2018-09-25T02:51:09.930Z,100313.08
2018-09-25T02:51:41.043Z,100318.54
2018-09-25T02:52:12.166Z,100308.05
2018-09-25T02:52:43.333Z,100314.14
2018-09-25T02:53:14.444Z,100322.25
2018-09-25T02:53:45.571Z,100312.71
2018-09-25T02:54:16.682Z,100318.48
2018-09-25T02:54:47.782Z,100329.55
2018-09-25T02:55:18.889Z,100302.20
2018-09-25T02:55:50.009Z,100306.62
2018-09-25T02:56:21.122Z,100334.13
2018-09-25T02:56:52.231Z,100321.98
2018-09-25T02:57:23.376Z,100324.23
2018-09-25T02:57:54.530Z,100324.16
2018-09-25T02:58:25.640Z,100319.77
2018-09-25T02:58:56.793Z,100318.92
2018-09-25T02:59:27.898Z,100326.27
2018-09-25T02:59:59.002Z,100321.49
2018-09-25T03:00:30.110Z,100333.66
2018-09-25T03:01:01.201Z,100312.75
2018-09-25T03:01:32.326Z,100323.90
2018-09-25T03:02:03.418Z,100320.74
2018-09-25T03:02:34.526Z,100320.16
2018-09-25T03:03:05.652Z,100326.35
2018-09-25T03:03:36.762Z,100322.17
2018-09-25T03:04:07.939Z,100312.52
2018-09-25T03:04:39.069Z,100306.28
2018-09-25T03:05:10.176Z,100314.25
2018-09-25T03:05:41.275Z,100325.09
2018-09-25T03:06:12.387Z,100327.20
2018-09-25T03:06:43.507Z,100332.01
2018-09-25T03:07:14.605Z,100329.22
2018-09-25T03:07:45.735Z,100334.36
2018-09-25T03:08:16.829Z,100307.66
2018-09-25T03:08:47.929Z,100312.91
2018-09-25T03:09:19.093Z,100322.02
2018-09-25T03:09:50.252Z,100324.84
2018-09-25T03:10:21.381Z,100321.21
2018-09-25T03:10:52.491Z,100332.71
2018-09-25T03:11:23.589Z,100308.34
2018-09-25T03:11:54.750Z,100330.80
2018-09-25T03:12:25.863Z,100328.28
2018-09-25T03:12:56.968Z,100327.58
2018-09-25T03:13:28.102Z,100330.36
2018-09-25T03:13:59.232Z,100332.16
2018-09-25T03:14:30.345Z,100341.33
2018-09-25T03:15:01.487Z,100334.00
2018-09-25T03:15:32.598Z,100348.83
2018-09-25T03:16:03.700Z,100335.19
2018-09-25T03:16:34.811Z,100340.91
2018-09-25T03:17:05.954Z,100327.25
2018-09-25T03:17:37.066Z,100317.66
2018-09-25T03:18:08.205Z,100339.09
2018-09-25T03:18:39.352Z,100351.73
2018-09-25T03:19:10.519Z,100342.49
2018-09-25T03:19:41.649Z,100349.84
2018-09-25T03:20:12.773Z,100349.30
2018-09-25T03:20:43.889Z,100347.30
2018-09-25T03:21:14.998Z,100357.35
2018-09-25T03:21:46.126Z,100350.19
2018-09-25T03:22:17.257Z,100349.30
2018-09-25T03:22:48.377Z,100350.20
2018-09-25T03:23:19.510Z,100343.63
2018-09-25T03:23:50.684Z,100327.39
2018-09-25T03:24:21.810Z,100355.97
2018-09-25T03:24:52.929Z,100354.70
2018-09-25T03:25:24.074Z,100340.12
2018-09-25T03:25:55.263Z,100350.45
2018-09-25T03:26:26.405Z,100374.25
2018-09-25T03:26:57.525Z,100363.27
2018-09-25T03:27:28.631Z,100349.75
2018-09-25T03:27:59.725Z,100331.80
2018-09-25T03:28:30.837Z,100351.16
2018-09-25T03:29:01.961Z,100359.73
2018-09-25T03:29:33.087Z,100358.31
2018-09-25T03:30:04.221Z,100333.70
2018-09-25T03:30:35.382Z,100367.20
2018-09-25T03:31:06.517Z,100371.80
2018-09-25T03:31:37.666Z,100366.50
2018-09-25T03:32:08.841Z,100356.23
2018-09-25T03:32:39.986Z,100361.77
2018-09-25T03:33:11.102Z,100354.75
2018-09-25T03:33:42.214Z,100363.56
2018-09-25T03:34:13.323Z,100366.28
2018-09-25T03:34:44.413Z,100380.29
2018-09-25T03:35:15.507Z,100374.58
2018-09-25T03:35:46.610Z,100376.41
2018-09-25T03:36:17.749Z,100380.70
2018-09-25T03:36:48.852Z,100359.63
2018-09-25T03:37:19.961Z,99954.83
2018-09-25T03:37:51.059Z,100384.45
2018-09-25T03:38:22.170Z,100376.31
2018-09-25T03:38:53.273Z,100380.98
2018-09-25T03:39:24.365Z,100376.41
2018-09-25T03:39:55.472Z,100380.23
2018-09-25T03:40:26.592Z,100366.55
2018-09-25T03:40:57.719Z,100362.91
2018-09-25T03:41:28.874Z,100373.17
2018-09-25T03:41:59.985Z,100369.61
2018-09-25T03:42:31.087Z,100365.53
2018-09-25T03:43:02.186Z,100383.27
2018-09-25T03:43:33.313Z,100362.17
2018-09-25T03:44:04.482Z,100381.83
2018-09-25T03:44:35.591Z,100371.97
2018-09-25T03:45:06.746Z,100391.27
2018-09-25T03:45:37.859Z,100366.98
2018-09-25T03:46:08.960Z,100365.15
2018-09-25T03:46:40.105Z,100352.41
2018-09-25T03:47:11.262Z,100386.44
2018-09-25T03:47:42.376Z,100377.01
2018-09-25T03:48:13.527Z,100344.05
2018-09-25T03:48:44.650Z,100360.85
2018-09-25T03:49:15.837Z,100362.64
2018-09-25T03:49:46.943Z,100379.63
2018-09-25T03:50:18.045Z,100364.53
2018-09-25T03:50:49.143Z,100379.37
2018-09-25T03:51:20.293Z,100372.13
2018-09-25T03:51:51.478Z,100364.16
2018-09-25T03:52:22.591Z,100382.05
2018-09-25T03:52:53.692Z,100383.45
2018-09-25T03:53:24.793Z,100377.84
2018-09-25T03:53:55.894Z,100384.03
2018-09-25T03:54:27.092Z,100390.16
2018-09-25T03:54:58.225Z,100387.55
2018-09-25T03:55:29.333Z,100376.69
2018-09-25T03:56:00.443Z,100387.17
2018-09-25T03:56:31.552Z,100371.14
2018-09-25T03:57:02.654Z,100382.55
2018-09-25T03:57:33.798Z,100378.25
2018-09-25T03:58:04.923Z,100382.66
2018-09-25T03:58:36.037Z,100374.94
2018-09-25T03:59:07.176Z,100385.02
2018-09-25T03:59:38.371Z,100383.17
2018-09-25T04:00:09.513Z,100378.20
2018-09-25T04:00:40.643Z,100387.69
2018-09-25T04:01:11.750Z,100375.90
2018-09-25T04:01:42.845Z,100389.23
2018-09-25T04:02:14.000Z,100369.19
2018-09-25T04:02:45.130Z,100369.25
2018-09-25T04:03:16.264Z,100369.20
2018-09-25T04:03:47.387Z,100381.98
2018-09-25T04:04:18.491Z,100379.98
2018-09-25T04:04:49.596Z,100390.04
2018-09-25T04:05:20.689Z,100370.45
2018-09-25T04:05:51.785Z,100386.85
2018-09-25T04:06:22.956Z,100390.78
2018-09-25T04:07:31.369Z,100383.77
2018-09-25T04:08:02.494Z,100387.75
2018-09-25T04:08:33.599Z,100385.65
2018-09-25T04:09:04.690Z,100395.33
2018-09-25T04:09:35.828Z,100382.81
2018-09-25T04:10:06.938Z,100386.41
2018-09-25T04:10:38.061Z,100391.61
2018-09-25T04:11:09.170Z,100387.20
2018-09-25T04:11:40.299Z,100390.52
2018-09-25T04:12:11.427Z,100405.71
2018-09-25T04:12:42.535Z,100403.51
2018-09-25T04:13:13.634Z,100397.95
2018-09-25T04:13:44.762Z,100391.50
2018-09-25T04:14:15.851Z,100407.73
2018-09-25T04:14:46.962Z,100392.06
2018-09-25T04:15:18.062Z,100386.93
2018-09-25T04:15:49.187Z,100389.92
2018-09-25T04:16:20.294Z,100384.62
2018-09-25T04:16:51.400Z,100390.19
2018-09-25T04:17:22.516Z,100392.81
2018-09-25T04:17:53.672Z,100389.25
2018-09-25T04:18:24.795Z,100398.90
2018-09-25T04:18:55.952Z,100403.28
2018-09-25T04:19:27.049Z,100410.73
2018-09-25T04:19:58.179Z,100409.00
2018-09-25T04:20:29.305Z,100399.46
2018-09-25T04:21:00.466Z,100408.48
2018-09-25T04:21:31.579Z,100412.27
2018-09-25T04:22:02.682Z,100416.93
2018-09-25T04:22:33.811Z,100427.78
2018-09-25T04:23:04.959Z,100418.70
2018-09-25T04:23:36.063Z,100414.41
2018-09-25T04:24:07.192Z,100416.14
2018-09-25T04:24:38.299Z,100422.59
2018-09-25T04:25:09.432Z,100422.02
2018-09-25T04:25:40.554Z,100418.05
2018-09-25T04:26:11.673Z,100425.58
2018-09-25T04:26:42.779Z,100423.95
2018-09-25T04:27:13.897Z,100419.28
2018-09-25T04:27:45.014Z,100415.12
2018-09-25T04:28:16.215Z,100424.39
2018-09-25T04:28:47.339Z,100430.52
2018-09-25T04:29:18.480Z,100418.78
2018-09-25T04:29:49.584Z,100425.33
2018-09-25T04:30:20.702Z,100419.67
2018-09-25T04:30:51.826Z,100423.70
2018-09-25T04:31:22.934Z,100427.15
2018-09-25T04:31:54.088Z,100428.04
2018-09-25T04:32:25.217Z,100421.95
2018-09-25T04:32:56.349Z,100422.38
2018-09-25T04:33:27.460Z,100428.92
2018-09-25T04:33:58.584Z,100424.62
2018-09-25T04:34:29.729Z,100430.38
2018-09-25T04:35:00.836Z,100433.42
2018-09-25T04:35:31.957Z,100434.59
2018-09-25T04:36:03.070Z,100435.01
2018-09-25T04:36:34.169Z,100421.45
2018-09-25T04:37:05.305Z,100428.88
2018-09-25T04:37:36.450Z,100437.48
2018-09-25T04:38:07.562Z,100444.45
2018-09-25T04:38:38.666Z,100431.50
2018-09-25T04:39:09.783Z,100447.20
2018-09-25T04:39:40.900Z,100443.75
2018-09-25T04:40:12.029Z,100439.78
2018-09-25T04:40:43.170Z,100433.78
2018-09-25T04:41:14.319Z,100451.19
2018-09-25T04:41:45.414Z,100441.13
2018-09-25T04:42:16.529Z,100440.72
2018-09-25T04:42:47.632Z,100436.45
2018-09-25T04:43:18.745Z,100435.24
2018-09-25T04:43:49.848Z,100439.22
2018-09-25T04:44:20.995Z,100433.61
2018-09-25T04:44:52.114Z,100446.64
2018-09-25T04:45:23.253Z,100440.52
2018-09-25T04:45:54.350Z,100429.91
2018-09-25T04:46:25.471Z,100434.26
2018-09-25T04:46:56.594Z,100443.47
2018-09-25T04:47:27.709Z,100443.52
2018-09-25T04:47:58.917Z,100448.52
2018-09-25T04:48:29.996Z,100433.64
2018-09-25T04:49:01.098Z,100446.45
2018-09-25T04:49:32.226Z,100445.52
2018-09-25T04:50:03.355Z,100451.80
2018-09-25T04:50:34.489Z,100440.66
2018-09-25T04:51:05.621Z,100448.19
2018-09-25T04:51:36.722Z,100451.33
2018-09-25T04:52:07.850Z,100452.27
2018-09-25T04:52:38.993Z,100454.88
2018-09-25T04:53:10.134Z,100456.18
2018-09-25T04:53:41.239Z,100454.78
2018-09-25T04:54:12.349Z,100460.06
2018-09-25T04:54:43.465Z,100456.52
2018-09-25T04:55:14.569Z,100471.53
2018-09-25T04:55:45.723Z,100464.42
2018-09-25T04:56:16.822Z,100463.05
2018-09-25T04:56:47.951Z,100466.61
2018-09-25T04:57:19.075Z,100461.80
2018-09-25T04:57:50.189Z,100479.66
2018-09-25T04:58:21.294Z,100469.66
2018-09-25T04:58:52.391Z,100482.23
2018-09-25T04:59:23.498Z,100466.98
2018-09-25T04:59:54.603Z,100484.39
2018-09-25T05:00:25.712Z,100464.94
2018-09-25T05:00:56.842Z,100337.73
2018-09-25T05:01:27.950Z,100465.12
2018-09-25T05:01:59.103Z,100466.28
2018-09-25T05:02:30.194Z,100467.03
2018-09-25T05:03:01.293Z,100467.27
2018-09-25T05:03:32.387Z,100468.06
2018-09-25T05:04:03.511Z,100470.69
2018-09-25T05:04:34.609Z,100469.84
2018-09-25T05:05:05.711Z,100477.98
2018-09-25T05:05:36.842Z,100472.23
2018-09-25T05:06:07.959Z,100463.20
2018-09-25T05:06:39.108Z,100471.94
2018-09-25T05:07:10.245Z,100482.38
2018-09-25T05:07:41.346Z,100483.27
2018-09-25T05:08:12.465Z,100481.81
2018-09-25T05:08:43.593Z,100484.01
2018-09-25T05:09:14.710Z,100483.12
2018-09-25T05:09:45.841Z,100486.27
2018-09-25T05:10:16.954Z,100453.30
2018-09-25T05:10:48.080Z,100483.78
2018-09-25T05:11:19.201Z,100482.89
2018-09-25T05:11:50.327Z,100490.52
2018-09-25T05:12:21.482Z,100482.33
2018-09-25T05:12:52.630Z,100496.17
2018-09-25T05:13:23.761Z,100484.81
2018-09-25T05:13:54.884Z,100490.19
2018-09-25T05:14:26.039Z,100488.37
2018-09-25T05:14:57.178Z,100488.27
2018-09-25T05:15:28.441Z,100491.78
2018-09-25T05:15:59.566Z,100495.52
2018-09-25T05:16:30.681Z,100493.03
2018-09-25T05:17:01.816Z,100493.92
2018-09-25T05:17:32.986Z,100499.48
2018-09-25T05:18:04.158Z,100496.73
2018-09-25T05:18:35.303Z,100499.63
2018-09-25T05:19:06.416Z,100476.71
2018-09-25T05:19:37.555Z,100493.50
2018-09-25T05:20:08.692Z,100492.94
2018-09-25T05:20:39.798Z,100487.94
2018-09-25T05:21:10.895Z,100496.04
2018-09-25T05:21:41.998Z,100496.18
2018-09-25T05:22:13.130Z,100489.26
2018-09-25T05:22:44.292Z,100498.84
2018-09-25T05:23:15.480Z,100493.56
2018-09-25T05:23:46.616Z,100499.68
2018-09-25T05:24:17.779Z,100503.70
2018-09-25T05:24:48.955Z,100494.77
2018-09-25T05:25:20.142Z,100497.52
2018-09-25T05:25:51.265Z,100486.91
2018-09-25T05:26:22.369Z,100488.55
2018-09-25T05:26:53.477Z,100493.03
2018-09-25T05:27:24.597Z,100491.44
2018-09-25T05:27:55.756Z,100497.47
2018-09-25T05:28:26.882Z,100494.02
2018-09-25T05:28:58.079Z,100497.94
2018-09-25T05:29:29.187Z,100500.94
2018-09-25T05:30:00.325Z,100499.54
2018-09-25T05:30:31.487Z,100497.30
2018-09-25T05:31:02.677Z,100498.41
2018-09-25T05:31:33.796Z,100500.38
2018-09-25T05:32:04.941Z,100497.57
2018-09-25T05:32:36.129Z,100495.75
2018-09-25T05:33:07.323Z,100501.02
2018-09-25T05:33:38.462Z,100489.08
2018-09-25T05:34:09.570Z,100503.07
2018-09-25T05:34:40.866Z,100498.72
2018-09-25T05:35:12.022Z,100478.80
2018-09-25T05:35:43.175Z,100462.77
2018-09-25T05:36:14.314Z,100498.03
2018-09-25T05:36:45.451Z,100499.03
2018-09-25T05:37:16.553Z,100487.03
2018-09-25T05:37:47.687Z,100500.05
2018-09-25T05:38:18.924Z,100502.61
2018-09-25T05:38:50.063Z,100496.43
2018-09-25T05:39:21.268Z,100496.27
2018-09-25T05:39:52.417Z,100494.16
2018-09-25T05:40:23.526Z,100496.14
2018-09-25T05:40:54.652Z,100500.23
2018-09-25T05:41:25.776Z,100494.80
2018-09-25T05:41:56.932Z,100501.41
2018-09-25T05:42:28.094Z,100498.13
2018-09-25T05:42:59.209Z,100507.38
2018-09-25T05:43:30.408Z,100504.55
2018-09-25T05:44:01.503Z,100511.75
2018-09-25T05:44:32.646Z,100497.58
2018-09-25T05:45:03.780Z,100509.96
2018-09-25T05:45:34.959Z,100510.44
2018-09-25T05:46:06.106Z,100509.36
2018-09-25T05:46:37.229Z,100506.31
2018-09-25T05:47:08.363Z,100503.74
2018-09-25T05:47:39.475Z,100509.88
2018-09-25T05:48:10.665Z,100508.64
2018-09-25T05:48:41.831Z,100513.91
2018-09-25T05:49:12.947Z,100500.80
2018-09-25T05:49:44.078Z,100502.46
2018-09-25T05:50:15.203Z,100505.16
2018-09-25T05:50:46.429Z,100513.03
2018-09-25T05:51:17.551Z,100506.05
2018-09-25T05:51:48.706Z,100510.92
2018-09-25T05:52:19.862Z,100502.71
2018-09-25T05:52:50.994Z,100508.61
2018-09-25T05:53:22.102Z,100506.52
2018-09-25T05:53:53.227Z,100509.44
2018-09-25T05:54:24.369Z,100511.47
2018-09-25T05:54:55.491Z,100508.19
2018-09-25T05:55:26.702Z,100508.97
2018-09-25T05:55:57.786Z,100507.34
2018-09-25T05:56:28.917Z,100516.96